createdAt,value
2022-08-30T17:07:01.910Z,44
2022-08-30T17:08:08.070Z,40
2022-08-30T17:09:14.038Z,40
2022-08-30T17:10:20.068Z,40
2022-08-30T17:11:26.186Z,40
2022-08-30T17:12:32.224Z,40
2022-08-30T17:13:38.350Z,40
2022-08-30T17:14:43.525Z,40
2022-08-30T17:15:48.642Z,40
2022-08-30T17:16:54.756Z,40
2022-08-30T17:18:00.762Z,40
2022-08-30T17:19:06.806Z,44
2022-08-30T17:20:12.878Z,40
2022-08-30T17:21:18.911Z,44
2022-08-30T17:22:24.979Z,44
2022-08-30T17:23:31.038Z,40
2022-08-30T17:24:36.161Z,44
2022-08-30T17:25:42.220Z,44
2022-08-30T17:26:48.295Z,40
2022-08-30T17:27:54.389Z,40
2022-08-30T17:29:00.426Z,40
2022-08-30T17:30:06.479Z,40
2022-08-30T17:31:12.550Z,36
2022-08-30T17:32:18.618Z,32
2022-08-30T17:33:24.715Z,28
2022-08-30T17:34:30.795Z,28
2022-08-30T17:35:36.827Z,28
2022-08-30T17:36:42.896Z,24
2022-08-30T17:37:48.971Z,28
2022-08-30T17:38:55.046Z,24
2022-08-30T17:40:01.103Z,24
2022-08-30T17:41:07.145Z,28
2022-08-30T17:42:13.207Z,24
2022-08-30T17:43:19.235Z,24
2022-08-30T17:44:25.328Z,28
2022-08-30T17:45:31.381Z,24
2022-08-30T17:46:37.480Z,24
2022-08-30T17:47:43.549Z,24
2022-08-30T17:48:49.574Z,24
2022-08-30T17:49:55.679Z,24
2022-08-30T17:51:01.737Z,24
2022-08-30T17:52:07.738Z,24
2022-08-30T17:53:13.837Z,20
2022-08-30T17:54:19.879Z,20
2022-08-30T17:55:25.947Z,24
2022-08-30T17:56:32.011Z,20
2022-08-30T17:57:37.055Z,20
2022-08-30T17:58:43.121Z,16
2022-08-30T17:59:49.177Z,16
2022-08-30T18:00:55.217Z,16
2022-08-30T18:02:01.266Z,12
2022-08-30T18:03:07.365Z,12
2022-08-30T18:04:13.421Z,12
2022-08-30T18:05:19.472Z,12
2022-08-30T18:06:25.543Z,12
2022-08-30T18:07:31.596Z,12
2022-08-30T18:08:37.669Z,8
2022-08-30T18:09:43.718Z,8
2022-08-30T18:10:48.837Z,8
2022-08-30T18:11:54.871Z,4
2022-08-30T18:13:00.988Z,4
2022-08-30T18:14:06.999Z,4
2022-08-30T18:15:13.050Z,4
2022-08-30T18:16:19.118Z,0
2022-08-30T18:17:25.204Z,0
2022-08-30T18:18:31.278Z,4
2022-08-30T18:19:37.305Z,4
2022-08-30T18:20:43.378Z,4
2022-08-30T18:21:49.437Z,0
2022-08-30T18:22:55.500Z,0
2022-08-30T18:24:00.625Z,0
2022-08-30T18:25:06.737Z,0
2022-08-30T18:26:11.765Z,0
2022-08-30T18:27:16.857Z,0
2022-08-30T18:28:22.953Z,0
2022-08-30T18:29:29.030Z,0
2022-08-30T18:30:35.064Z,0
2022-08-30T18:31:41.169Z,0
2022-08-30T18:32:47.251Z,0
2022-08-30T18:33:53.276Z,0
2022-08-30T18:34:59.406Z,0
2022-08-30T18:36:05.467Z,0
2022-08-30T18:37:11.505Z,0
2022-08-30T18:38:17.596Z,0
2022-08-30T18:39:23.695Z,0
2022-08-30T18:40:29.732Z,0
2022-08-30T18:41:34.838Z,0
2022-08-30T18:42:39.969Z,0
2022-08-30T18:43:46.035Z,0
2022-08-30T18:44:51.115Z,0
2022-08-30T18:45:56.231Z,0
2022-08-30T18:47:03.602Z,0
2022-08-30T18:48:08.419Z,0
2022-08-30T18:49:14.450Z,0
2022-08-30T18:50:20.489Z,0
2022-08-30T18:51:26.577Z,0
2022-08-30T18:52:32.652Z,0
2022-08-30T18:53:38.730Z,0
2022-08-30T18:54:44.800Z,0
2022-08-30T18:55:50.888Z,0
2022-08-30T18:56:56.968Z,0
2022-08-30T18:58:03.418Z,0
2022-08-30T18:59:09.115Z,0
2022-08-30T19:00:14.206Z,0
2022-08-30T19:01:20.262Z,0
2022-08-30T19:02:26.309Z,0
2022-08-30T19:03:32.498Z,0
2022-08-30T19:04:38.499Z,0
2022-08-30T19:05:45.011Z,0
2022-08-30T19:06:50.660Z,0
2022-08-30T19:07:56.696Z,0
2022-08-30T19:09:02.769Z,0
2022-08-30T19:10:08.854Z,0
2022-08-30T19:11:14.902Z,0
2022-08-30T19:12:21.020Z,0
2022-08-30T19:13:26.077Z,0
2022-08-30T19:14:31.200Z,0
2022-08-30T19:15:36.286Z,0
2022-08-30T19:16:41.354Z,0
2022-08-30T19:17:47.475Z,0
2022-08-30T19:18:53.539Z,0
2022-08-30T19:19:59.636Z,0
2022-08-30T19:21:05.650Z,0
2022-08-30T19:22:11.725Z,0
2022-08-30T19:23:17.840Z,0
2022-08-30T19:24:23.895Z,0
2022-08-30T19:25:29.984Z,0
2022-08-30T19:26:36.065Z,0
2022-08-30T19:27:42.161Z,0
2022-08-30T19:28:48.205Z,0
2022-08-30T19:29:54.291Z,0
2022-08-30T19:30:59.468Z,0
2022-08-30T19:32:05.517Z,0
2022-08-30T19:33:11.549Z,0
2022-08-30T19:34:17.624Z,0
2022-08-30T19:35:23.690Z,0
2022-08-30T19:36:29.813Z,0
2022-08-30T19:37:35.882Z,0
2022-08-30T19:38:41.011Z,0
2022-08-30T19:39:46.073Z,0
2022-08-30T19:40:52.122Z,0
2022-08-30T19:41:58.200Z,0
2022-08-30T19:43:04.297Z,0
2022-08-30T19:44:10.368Z,0
2022-08-30T19:45:16.450Z,0
2022-08-30T19:46:22.506Z,0
2022-08-30T19:47:28.601Z,0
2022-08-30T19:48:34.651Z,0
2022-08-30T19:49:40.713Z,0
2022-08-30T19:50:46.824Z,0
2022-08-30T19:51:52.918Z,0
2022-08-30T19:52:58.960Z,0
2022-08-30T19:54:04.033Z,0
2022-08-30T19:55:10.123Z,0
2022-08-30T19:56:16.195Z,0
2022-08-30T19:57:22.290Z,0
2022-08-30T19:58:28.373Z,0
2022-08-30T19:59:34.435Z,0
2022-08-30T20:00:40.538Z,0
2022-08-30T20:01:45.613Z,0
2022-08-30T20:02:50.701Z,0
2022-08-30T20:03:55.819Z,0
2022-08-30T20:05:00.911Z,0
2022-08-30T20:06:06.023Z,0
2022-08-30T20:07:11.119Z,0
2022-08-30T20:08:16.214Z,0
2022-08-30T20:09:21.306Z,0
2022-08-30T20:10:27.391Z,0
2022-08-30T20:11:33.469Z,0
2022-08-30T20:12:39.550Z,0
2022-08-30T20:13:45.683Z,0
2022-08-30T20:14:51.700Z,0
2022-08-30T20:15:57.774Z,0
2022-08-30T20:17:03.847Z,0
2022-08-30T20:18:09.952Z,0
2022-08-30T20:19:16.003Z,0
2022-08-30T20:20:22.084Z,0
2022-08-30T20:21:28.166Z,0
2022-08-30T20:22:34.260Z,0
2022-08-30T20:23:39.369Z,0
2022-08-30T20:24:45.445Z,0
2022-08-30T20:25:51.512Z,0
2022-08-30T20:26:56.633Z,0
2022-08-30T20:28:02.701Z,0
2022-08-30T20:29:08.769Z,0
2022-08-30T20:30:14.842Z,0
2022-08-30T20:31:19.966Z,0
2022-08-30T20:32:25.050Z,0
2022-08-30T20:33:30.180Z,0
2022-08-30T20:34:35.267Z,0
2022-08-30T20:35:41.359Z,0
2022-08-30T20:36:47.440Z,0
2022-08-30T20:37:53.525Z,0
2022-08-30T20:38:59.600Z,0
2022-08-30T20:40:05.658Z,0
2022-08-30T20:41:11.760Z,0
2022-08-30T20:42:17.812Z,0
2022-08-30T20:43:23.907Z,0
2022-08-30T20:44:29.961Z,0
2022-08-30T20:45:36.043Z,0
2022-08-30T20:46:42.120Z,0
2022-08-30T20:47:48.185Z,0
2022-08-30T20:48:53.290Z,0
2022-08-30T20:49:59.384Z,0
2022-08-30T20:51:05.465Z,0
2022-08-30T20:52:11.573Z,0
2022-08-30T20:53:17.616Z,0
2022-08-30T20:54:23.686Z,0
2022-08-30T20:55:29.758Z,0
2022-08-30T20:56:34.891Z,0
2022-08-30T20:57:39.959Z,0
2022-08-30T20:58:45.091Z,0
2022-08-30T20:59:50.186Z,0
2022-08-30T21:00:56.278Z,0
2022-08-30T21:02:02.321Z,0
2022-08-30T21:03:08.418Z,0
2022-08-30T21:04:14.479Z,0
2022-08-30T21:05:20.552Z,0
2022-08-30T21:06:26.598Z,0
2022-08-30T21:07:32.684Z,0
2022-08-30T21:08:38.745Z,0
2022-08-30T21:09:44.830Z,0
2022-08-30T21:10:50.910Z,0
2022-08-30T21:11:56.988Z,0
2022-08-30T21:13:03.046Z,0
2022-08-30T21:14:08.149Z,0
2022-08-30T21:15:14.225Z,0
2022-08-30T21:16:20.292Z,0
2022-08-30T21:17:26.356Z,0
2022-08-30T21:18:32.447Z,0
2022-08-30T21:19:38.483Z,0
2022-08-30T21:20:44.587Z,0
2022-08-30T21:21:49.682Z,0
2022-08-30T21:22:54.756Z,0
2022-08-30T21:24:00.835Z,0
2022-08-30T21:25:05.978Z,0
2022-08-30T21:26:11.034Z,0
2022-08-30T21:27:17.137Z,0
2022-08-30T21:28:23.199Z,0
2022-08-30T21:29:29.283Z,0
2022-08-30T21:30:35.349Z,0
2022-08-30T21:31:41.448Z,0
2022-08-30T21:32:47.514Z,0
2022-08-30T21:33:53.563Z,0
2022-08-30T21:34:59.629Z,0
2022-08-30T21:36:05.705Z,0
2022-08-30T21:37:11.774Z,0
2022-08-30T21:38:17.855Z,0
2022-08-30T21:39:23.942Z,0
2022-08-30T21:40:29.035Z,0
2022-08-30T21:41:35.111Z,0
2022-08-30T21:42:41.198Z,0
2022-08-30T21:43:47.271Z,0
2022-08-30T21:44:53.352Z,0
2022-08-30T21:45:59.423Z,0
2022-08-30T21:47:05.514Z,0
2022-08-30T21:48:10.622Z,0
2022-08-30T21:49:15.746Z,0
2022-08-30T21:50:21.831Z,0
2022-08-30T21:51:26.895Z,0
2022-08-30T21:52:31.984Z,0
2022-08-30T21:53:38.040Z,0
2022-08-30T21:54:44.130Z,0
2022-08-30T21:55:50.192Z,0
2022-08-30T21:56:56.278Z,0
2022-08-30T21:58:02.351Z,0
2022-08-30T21:59:08.430Z,0
2022-08-30T22:00:14.501Z,0
2022-08-30T22:01:20.583Z,0
2022-08-30T22:02:26.657Z,0
2022-08-30T22:03:32.747Z,0
2022-08-30T22:04:38.825Z,0
2022-08-30T22:05:44.898Z,0
2022-08-30T22:06:49.990Z,0
2022-08-30T22:07:56.068Z,0
2022-08-30T22:09:02.162Z,0
2022-08-30T22:10:08.227Z,0
2022-08-30T22:11:14.300Z,0
2022-08-30T22:12:20.382Z,0
2022-08-30T22:13:26.465Z,0
2022-08-30T22:14:31.575Z,0
2022-08-30T22:15:36.662Z,0
2022-08-30T22:16:42.723Z,0
2022-08-30T22:17:48.802Z,0
2022-08-30T22:18:54.879Z,0
2022-08-30T22:20:01.004Z,0
2022-08-30T22:21:07.051Z,0
2022-08-30T22:22:13.121Z,0
2022-08-30T22:23:19.206Z,0
2022-08-30T22:24:25.288Z,0
2022-08-30T22:25:31.408Z,0
2022-08-30T22:26:37.470Z,0
2022-08-30T22:27:43.506Z,0
2022-08-30T22:28:49.600Z,0
2022-08-30T22:29:54.689Z,0
2022-08-30T22:31:00.771Z,0
2022-08-30T22:32:06.871Z,0
2022-08-30T22:33:12.932Z,0
2022-08-30T22:34:19.015Z,0
2022-08-30T22:35:25.109Z,0
2022-08-30T22:36:31.194Z,0
2022-08-30T22:37:36.308Z,0
2022-08-30T22:38:41.407Z,0
2022-08-30T22:39:46.499Z,0
2022-08-30T22:40:51.614Z,0
2022-08-30T22:41:56.724Z,0
2022-08-30T22:43:01.833Z,0
2022-08-30T22:44:07.925Z,0
2022-08-30T22:45:14.047Z,0
2022-08-30T22:46:20.106Z,0
2022-08-30T22:47:26.168Z,0
2022-08-30T22:48:32.256Z,0
2022-08-30T22:49:38.320Z,0
2022-08-30T22:50:44.401Z,0
2022-08-30T22:51:50.461Z,0
2022-08-30T22:52:56.545Z,0
2022-08-30T22:54:02.627Z,0
2022-08-30T22:55:08.700Z,0
2022-08-30T22:56:14.775Z,0
2022-08-30T22:57:19.901Z,0
2022-08-30T22:58:25.947Z,0
2022-08-30T22:59:32.016Z,0
2022-08-30T23:00:38.096Z,0
2022-08-30T23:01:44.152Z,0
2022-08-30T23:02:50.240Z,0
2022-08-30T23:03:56.316Z,0
2022-08-30T23:05:01.417Z,0
2022-08-30T23:06:06.517Z,0
2022-08-30T23:07:11.624Z,0
2022-08-30T23:08:16.718Z,0
2022-08-30T23:09:22.798Z,0
2022-08-30T23:10:28.882Z,0
2022-08-30T23:11:34.946Z,0
2022-08-30T23:12:41.044Z,0
2022-08-30T23:13:47.101Z,0
2022-08-30T23:14:53.214Z,0
2022-08-30T23:15:59.318Z,0
2022-08-30T23:17:05.349Z,0
2022-08-30T23:18:11.451Z,0
2022-08-30T23:19:17.534Z,0
2022-08-30T23:20:23.593Z,0
2022-08-30T23:21:29.705Z,0
2022-08-30T23:22:34.790Z,0
2022-08-30T23:23:40.898Z,0
2022-08-30T23:24:46.951Z,0
2022-08-30T23:25:53.024Z,0
2022-08-30T23:26:59.093Z,0
2022-08-30T23:28:05.173Z,0
2022-08-30T23:29:11.263Z,0
2022-08-30T23:30:16.364Z,0
2022-08-30T23:31:21.463Z,0
2022-08-30T23:32:27.533Z,0
2022-08-30T23:33:33.637Z,0
2022-08-30T23:34:39.684Z,0
2022-08-30T23:35:45.793Z,0
2022-08-30T23:36:51.835Z,0
2022-08-30T23:37:57.914Z,0
2022-08-30T23:39:03.968Z,0
2022-08-30T23:40:10.057Z,0
2022-08-30T23:41:16.139Z,0
2022-08-30T23:42:22.204Z,0
2022-08-30T23:43:28.297Z,0
2022-08-30T23:44:34.338Z,0
2022-08-30T23:45:39.413Z,0
2022-08-30T23:46:45.493Z,0
2022-08-30T23:47:51.580Z,0
2022-08-30T23:48:57.652Z,0
2022-08-30T23:50:03.737Z,0
2022-08-30T23:51:09.815Z,0
2022-08-30T23:52:15.899Z,0
2022-08-30T23:53:21.002Z,0
2022-08-30T23:54:26.091Z,0
2022-08-30T23:55:31.204Z,0
2022-08-30T23:56:36.297Z,0
2022-08-30T23:57:41.400Z,0
2022-08-30T23:58:46.486Z,0
2022-08-30T23:59:52.566Z,0
